Time;durP1;ratioP1;P1;durP2;ratioP2;P2;SDS_P1;SDS_P2;PMS_P1;PMS_P2;Temp;Humidity;BMP_temperature;BMP_pressure;BME280_temperature;BME280_humidity;BME280_pressure;Samples;Min_cycle;Max_cycle;Signal;HPM_P1;HPM_P2
2024/01/28 00:01:44;;;;;;;2.97;1.92;;;22.20;47.80;;;;;;4989537;28;88081;-60
2024/01/28 00:04:09;;;;;;;2.65;1.50;;;22.10;47.80;;;;;;4954685;28;88548;-60
2024/01/28 00:06:36;;;;;;;2.05;1.20;;;22.10;47.80;;;;;;4955902;28;86929;-60
2024/01/28 00:09:02;;;;;;;2.58;1.58;;;22.10;47.90;;;;;;4955109;28;87092;-60
2024/01/28 00:11:27;;;;;;;2.25;1.65;;;22.10;47.90;;;;;;4957062;28;87525;-60
2024/01/28 00:13:54;;;;;;;2.65;1.48;;;22.00;47.90;;;;;;4956681;28;89044;-59
2024/01/28 00:16:20;;;;;;;2.90;1.70;;;22.00;47.90;;;;;;4957444;28;88155;-60
2024/01/28 00:18:46;;;;;;;3.47;1.55;;;22.00;47.90;;;;;;4950161;28;87523;-60
2024/01/28 00:21:11;;;;;;;2.75;1.45;;;21.90;47.80;;;;;;4956179;28;87424;-60
2024/01/28 00:23:37;;;;;;;3.03;1.85;;;21.90;47.80;;;;;;4955082;28;88934;-60
2024/01/28 00:26:03;;;;;;;3.15;1.70;;;21.90;48.00;;;;;;4960514;27;87405;-61
2024/01/28 00:28:29;;;;;;;2.53;1.88;;;21.90;48.00;;;;;;4957915;28;87034;-60
2024/01/28 00:30:55;;;;;;;2.45;1.42;;;21.80;47.90;;;;;;4953509;28;88890;-60
2024/01/28 00:33:22;;;;;;;3.50;1.48;;;21.80;48.00;;;;;;4957784;27;88310;-60
2024/01/28 00:35:48;;;;;;;2.83;1.63;;;21.80;47.90;;;;;;4949722;27;88242;-60
2024/01/28 00:38:14;;;;;;;2.05;1.40;;;21.80;48.10;;;;;;4955404;28;89644;-60
2024/01/28 00:40:40;;;;;;;2.28;1.20;;;21.80;48.20;;;;;;4956934;28;87741;-58
2024/01/28 00:43:06;;;;;;;3.15;1.88;;;21.80;48.00;;;;;;4948813;28;88610;-57
2024/01/28 00:45:33;;;;;;;3.47;1.77;;;21.70;48.00;;;;;;4952550;28;87842;-57
2024/01/28 00:47:58;;;;;;;3.05;1.90;;;21.70;48.10;;;;;;4983047;28;87942;-58
2024/01/28 00:50:24;;;;;;;2.83;1.50;;;21.70;48.80;;;;;;4957225;28;87452;-57
2024/01/28 00:52:50;;;;;;;2.22;1.23;;;21.70;48.00;;;;;;4955996;28;88299;-57
2024/01/28 00:55:17;;;;;;;1.90;1.48;;;21.60;48.00;;;;;;4986454;28;89250;-57
2024/01/28 00:57:43;;;;;;;1.65;1.38;;;21.60;48.10;;;;;;4984130;28;87703;-58
2024/01/28 01:00:10;;;;;;;2.25;1.50;;;21.60;48.00;;;;;;4953545;28;87353;-57
2024/01/28 01:02:35;;;;;;;2.30;1.67;;;21.60;48.10;;;;;;4954968;28;89034;-56
2024/01/28 01:05:02;;;;;;;1.95;1.58;;;21.50;48.10;;;;;;4957900;28;88186;-58
2024/01/28 01:07:28;;;;;;;2.33;1.63;;;21.50;48.10;;;;;;4955147;28;88098;-56
2024/01/28 01:09:53;;;;;;;2.33;1.48;;;21.50;48.20;;;;;;4952841;28;87886;-57
2024/01/28 01:12:22;;;;;;;3.08;2.08;;;21.50;48.20;;;;;;4955493;28;87489;-57
2024/01/28 01:14:47;;;;;;;2.50;1.50;;;21.50;48.30;;;;;;4954707;27;87690;-57
2024/01/28 01:17:14;;;;;;;2.50;1.67;;;21.40;48.20;;;;;;4949472;28;87584;-57
2024/01/28 01:19:41;;;;;;;2.17;1.30;;;21.50;48.20;;;;;;4952738;28;87904;-58
2024/01/28 01:22:07;;;;;;;2.53;1.38;;;21.40;48.10;;;;;;4953282;28;89898;-58
2024/01/28 01:24:33;;;;;;;2.38;1.50;;;21.40;48.00;;;;;;4952086;27;87329;-58
2024/01/28 01:26:58;;;;;;;2.67;1.60;;;21.40;48.20;;;;;;4952204;28;88689;-57
2024/01/28 01:29:24;;;;;;;2.03;1.50;;;21.40;48.20;;;;;;4953352;28;87862;-57
2024/01/28 01:31:50;;;;;;;2.42;1.70;;;21.30;48.10;;;;;;4955097;28;88351;-58
2024/01/28 01:34:17;;;;;;;3.25;1.63;;;21.30;48.10;;;;;;4956861;28;87867;-58
2024/01/28 01:36:50;;;;;;;2.22;1.65;;;21.30;48.10;;;;;;4954000;27;87348;-57
2024/01/28 01:39:16;;;;;;;2.25;1.45;;;21.30;48.80;;;;;;4954168;28;88791;-58
2024/01/28 01:41:43;;;;;;;3.35;1.70;;;21.30;48.10;;;;;;4954957;28;88519;-58
2024/01/28 01:44:10;;;;;;;3.10;1.52;;;21.20;48.00;;;;;;4956070;28;87805;-56
2024/01/28 01:46:35;;;;;;;1.77;1.20;;;21.20;48.00;;;;;;4955344;28;87571;-57
2024/01/28 01:49:02;;;;;;;2.35;1.63;;;21.20;48.00;;;;;;4957806;28;88027;-58
2024/01/28 01:51:29;;;;;;;2.75;1.52;;;21.20;48.00;;;;;;4954719;28;89800;-57
2024/01/28 01:53:56;;;;;;;1.73;1.45;;;21.20;48.20;;;;;;4956868;28;88647;-57
2024/01/28 01:56:23;;;;;;;2.83;1.88;;;21.20;48.20;;;;;;4956943;28;87506;-58
2024/01/28 01:58:49;;;;;;;2.60;1.45;;;21.20;48.20;;;;;;4941052;28;87626;-57
2024/01/28 02:01:16;;;;;;;3.22;1.70;;;21.10;48.60;;;;;;4961231;27;88896;-58
2024/01/28 02:03:43;;;;;;;2.75;1.60;;;21.10;48.20;;;;;;4955312;28;88032;-57
2024/01/28 02:06:11;;;;;;;2.22;1.60;;;21.10;48.00;;;;;;4959622;28;87538;-57
2024/01/28 02:08:36;;;;;;;2.70;1.42;;;21.10;48.20;;;;;;4958569;27;86896;-57
2024/01/28 02:11:05;;;;;;;3.10;1.90;;;21.10;48.10;;;;;;4957135;28;87702;-57
2024/01/28 02:13:30;;;;;;;1.80;1.48;;;21.10;48.10;;;;;;4959000;28;88177;-58
2024/01/28 02:15:56;;;;;;;1.67;1.25;;;21.00;48.00;;;;;;4955307;28;88658;-57
2024/01/28 02:18:22;;;;;;;2.25;1.65;;;21.00;48.00;;;;;;4959052;28;87684;-57
2024/01/28 02:20:47;;;;;;;2.53;1.45;;;21.00;48.00;;;;;;4956845;28;87626;-58
2024/01/28 02:23:21;;;;;;;2.67;1.65;;;21.00;47.90;;;;;;4958423;27;87548;-58
2024/01/28 02:25:47;;;;;;;1.63;1.30;;;21.00;47.90;;;;;;4942054;28;87408;-57
2024/01/28 02:28:13;;;;;;;1.73;1.33;;;21.00;47.90;;;;;;4952610;28;87890;-58
2024/01/28 02:30:38;;;;;;;1.88;1.40;;;21.00;48.10;;;;;;4959182;27;87681;-59
2024/01/28 02:33:04;;;;;;;2.22;1.52;;;20.90;48.00;;;;;;4957028;27;87801;-59
2024/01/28 02:35:30;;;;;;;2.22;1.35;;;20.90;48.00;;;;;;4956181;28;87825;-60
2024/01/28 02:37:56;;;;;;;1.83;1.33;;;20.90;48.00;;;;;;4959177;28;87408;-60
2024/01/28 02:40:22;;;;;;;2.55;1.77;;;20.90;48.00;;;;;;4987509;28;89524;-60
2024/01/28 02:42:49;;;;;;;1.83;1.40;;;20.90;47.90;;;;;;4957335;27;88037;-60
2024/01/28 02:45:14;;;;;;;2.33;1.40;;;20.90;47.80;;;;;;4953076;28;89291;-60
2024/01/28 02:47:40;;;;;;;1.98;1.55;;;20.80;47.80;;;;;;4955277;27;87477;-60
2024/01/28 02:50:07;;;;;;;1.60;1.27;;;20.80;48.50;;;;;;4956038;27;88237;-60
2024/01/28 02:52:33;;;;;;;2.67;1.60;;;20.80;48.00;;;;;;4960593;28;87801;-60
2024/01/28 02:54:59;;;;;;;1.45;1.27;;;20.80;48.10;;;;;;4955999;28;87615;-60
2024/01/28 02:57:24;;;;;;;1.80;1.50;;;20.80;47.90;;;;;;4972223;27;88182;-60
2024/01/28 02:59:50;;;;;;;2.28;1.88;;;20.80;48.00;;;;;;4957756;27;88344;-60
2024/01/28 03:02:17;;;;;;;2.15;1.45;;;20.70;48.00;;;;;;4955572;27;87874;-60
2024/01/28 03:04:43;;;;;;;2.20;1.40;;;20.70;48.00;;;;;;4957326;28;88980;-60
2024/01/28 03:07:09;;;;;;;2.13;1.50;;;20.70;47.90;;;;;;4952739;28;87709;-60
2024/01/28 03:09:36;;;;;;;1.95;1.27;;;20.70;47.90;;;;;;4957439;28;89914;-60
2024/01/28 03:12:02;;;;;;;1.95;1.60;;;20.70;47.80;;;;;;4986531;28;88543;-60
2024/01/28 03:14:29;;;;;;;2.35;1.33;;;20.70;47.90;;;;;;4958075;28;87756;-60
2024/01/28 03:16:54;;;;;;;1.83;1.40;;;20.70;47.90;;;;;;4989184;28;87836;-60
2024/01/28 03:19:20;;;;;;;1.92;1.58;;;20.70;48.00;;;;;;4957771;28;89747;-60
2024/01/28 03:21:46;;;;;;;2.53;1.38;;;20.70;47.80;;;;;;4954723;28;88546;-59
2024/01/28 03:24:11;;;;;;;1.92;1.30;;;20.60;47.80;;;;;;4955991;28;87171;-60
2024/01/28 03:26:37;;;;;;;2.35;1.77;;;20.60;47.70;;;;;;4959141;27;87357;-61
2024/01/28 03:29:04;;;;;;;2.42;1.65;;;20.60;47.70;;;;;;4953131;27;89609;-60
2024/01/28 03:31:30;;;;;;;2.10;1.38;;;20.60;47.90;;;;;;4958618;28;88731;-60
2024/01/28 03:33:56;;;;;;;1.48;1.38;;;20.60;47.80;;;;;;4952427;28;88845;-60
2024/01/28 03:36:22;;;;;;;1.27;1.08;;;20.60;47.90;;;;;;4954962;27;87065;-60
2024/01/28 03:38:48;;;;;;;1.77;1.38;;;20.60;47.90;;;;;;4957256;28;88588;-60
2024/01/28 03:41:15;;;;;;;1.75;1.40;;;20.60;47.90;;;;;;4955882;28;88931;-60
2024/01/28 03:43:46;;;;;;;2.95;1.63;;;20.60;48.00;;;;;;4958495;28;87420;-57
2024/01/28 03:46:13;;;;;;;2.03;1.30;;;20.50;47.80;;;;;;4954316;28;86813;-57
2024/01/28 03:48:38;;;;;;;2.35;1.75;;;20.50;47.80;;;;;;4955034;28;88481;-57
2024/01/28 03:51:04;;;;;;;2.40;1.80;;;20.50;47.80;;;;;;4954621;28;90184;-57
2024/01/28 03:53:30;;;;;;;2.85;1.58;;;20.50;47.80;;;;;;4955827;28;89087;-58
2024/01/28 03:55:56;;;;;;;2.03;1.38;;;20.50;47.70;;;;;;4955742;28;86911;-58
2024/01/28 03:58:22;;;;;;;2.42;1.23;;;20.50;47.80;;;;;;4955434;28;87940;-57
2024/01/28 04:00:48;;;;;;;1.80;1.38;;;20.50;47.80;;;;;;4953214;27;87824;-57
2024/01/28 04:03:14;;;;;;;2.05;1.85;;;20.50;47.90;;;;;;4956086;28;87246;-57
2024/01/28 04:05:40;;;;;;;1.70;1.33;;;20.40;47.80;;;;;;4958325;27;87494;-56
2024/01/28 04:08:09;;;;;;;2.55;1.33;;;20.50;47.70;;;;;;4961447;28;87536;-58
2024/01/28 04:10:35;;;;;;;2.00;1.35;;;20.40;47.70;;;;;;4955118;28;89237;-56
2024/01/28 04:13:01;;;;;;;2.10;1.65;;;20.40;47.80;;;;;;4952341;28;86977;-57
2024/01/28 04:15:28;;;;;;;1.60;1.20;;;20.40;47.70;;;;;;4958768;28;88484;-57
2024/01/28 04:17:53;;;;;;;1.35;1.25;;;20.40;47.80;;;;;;4953673;28;89849;-58
2024/01/28 04:20:19;;;;;;;1.70;1.48;;;20.40;47.80;;;;;;4956044;27;90164;-58
2024/01/28 04:22:45;;;;;;;1.88;1.33;;;20.40;47.70;;;;;;4958335;28;87479;-57
2024/01/28 04:25:12;;;;;;;1.80;1.58;;;20.40;47.80;;;;;;4952775;27;86996;-57
2024/01/28 04:27:38;;;;;;;1.83;1.40;;;20.30;47.80;;;;;;4957038;28;88002;-58
2024/01/28 04:30:06;;;;;;;1.63;1.50;;;20.30;47.80;;;;;;4956167;28;87834;-58
2024/01/28 04:32:31;;;;;;;1.58;1.23;;;20.30;47.70;;;;;;4953460;28;88056;-58
2024/01/28 04:34:59;;;;;;;2.55;1.52;;;20.30;47.80;;;;;;4956102;28;87040;-57
2024/01/28 04:37:26;;;;;;;2.28;1.45;;;20.30;47.70;;;;;;4956114;28;87323;-57
2024/01/28 04:39:53;;;;;;;2.47;1.58;;;20.30;47.90;;;;;;4952677;27;87776;-57
2024/01/28 04:42:22;;;;;;;2.42;1.38;;;20.30;47.90;;;;;;4952621;28;88651;-57
2024/01/28 04:44:48;;;;;;;1.60;1.17;;;20.20;47.70;;;;;;4952285;28;87648;-57
2024/01/28 04:47:15;;;;;;;2.33;1.55;;;20.30;47.80;;;;;;4953658;27;88130;-60
2024/01/28 04:49:42;;;;;;;3.33;1.50;;;20.20;47.90;;;;;;4957844;28;88480;-60
2024/01/28 04:52:09;;;;;;;2.03;1.40;;;20.20;47.80;;;;;;4955455;28;87404;-60
2024/01/28 04:54:36;;;;;;;2.10;1.50;;;20.20;47.80;;;;;;4955563;28;87052;-60
2024/01/28 04:57:02;;;;;;;2.45;1.65;;;20.20;47.70;;;;;;4953448;28;88419;-60
2024/01/28 04:59:28;;;;;;;1.73;1.63;;;20.30;47.90;;;;;;4952960;28;90680;-60
2024/01/28 05:01:55;;;;;;;2.38;1.52;;;20.20;47.80;;;;;;4941736;28;87294;-60
2024/01/28 05:04:21;;;;;;;2.10;1.40;;;20.20;47.70;;;;;;4954299;28;87411;-60
2024/01/28 05:06:48;;;;;;;2.08;1.40;;;20.20;47.70;;;;;;4955957;27;89135;-60
2024/01/28 05:09:17;;;;;;;2.10;1.50;;;20.20;47.70;;;;;;4952841;28;89355;-60
2024/01/28 05:11:45;;;;;;;2.75;1.27;;;20.20;47.80;;;;;;4954168;27;87717;-60
2024/01/28 05:14:11;;;;;;;1.90;1.20;;;20.10;47.70;;;;;;4953258;28;87945;-60
2024/01/28 05:16:37;;;;;;;2.15;1.30;;;20.10;47.70;;;;;;4951657;28;88181;-60
2024/01/28 05:19:06;;;;;;;2.50;1.30;;;20.10;47.90;;;;;;4947627;28;88457;-60
2024/01/28 05:21:32;;;;;;;2.17;1.70;;;20.10;47.80;;;;;;4952382;28;87512;-60
2024/01/28 05:23:58;;;;;;;2.15;1.40;;;20.10;47.80;;;;;;4951227;28;87850;-60
2024/01/28 05:26:24;;;;;;;3.38;1.77;;;20.10;47.70;;;;;;4957613;28;87618;-60
2024/01/28 05:28:49;;;;;;;1.92;1.40;;;20.10;47.60;;;;;;4960828;28;87668;-60
2024/01/28 05:31:15;;;;;;;2.08;1.27;;;20.10;47.50;;;;;;4959143;28;88427;-60
2024/01/28 05:33:41;;;;;;;2.00;1.40;;;20.10;47.60;;;;;;4941152;28;87404;-60
2024/01/28 05:36:16;;;;;;;1.83;1.30;;;20.10;47.70;;;;;;4957298;28;87846;-60
2024/01/28 05:38:42;;;;;;;2.20;1.67;;;20.10;47.50;;;;;;4988296;28;88412;-60
2024/01/28 05:41:08;;;;;;;2.35;1.38;;;20.10;47.70;;;;;;4987564;28;87294;-60
2024/01/28 05:43:35;;;;;;;2.08;1.50;;;20.00;47.60;;;;;;4958823;28;87242;-60
2024/01/28 05:46:02;;;;;;;2.03;1.58;;;20.00;47.70;;;;;;4959621;27;88052;-60
2024/01/28 05:48:28;;;;;;;1.33;1.23;;;20.00;47.60;;;;;;4957482;27;87714;-60
2024/01/28 05:50:56;;;;;;;1.90;1.45;;;20.00;47.50;;;;;;4991676;28;87417;-60
2024/01/28 05:53:25;;;;;;;1.88;1.20;;;20.00;47.60;;;;;;4957283;28;87941;-60
2024/01/28 05:55:54;;;;;;;;;;;20.00;47.60;;;;;;4959431;28;89703;-60
2024/01/28 05:58:21;;;;;;;1.92;1.40;;;20.00;47.60;;;;;;4957579;27;87707;-60
2024/01/28 06:00:47;;;;;;;1.77;1.58;;;20.00;47.50;;;;;;4957395;28;88026;-60
2024/01/28 06:03:14;;;;;;;1.65;1.13;;;20.00;47.70;;;;;;4959601;28;87667;-60
2024/01/28 06:05:41;;;;;;;1.70;1.00;;;20.00;47.50;;;;;;4954806;28;88307;-60
2024/01/28 06:08:08;;;;;;;2.08;1.45;;;20.00;47.50;;;;;;4955926;28;87850;-60
2024/01/28 06:10:33;;;;;;;1.95;1.30;;;20.00;47.50;;;;;;4959914;28;87879;-60
2024/01/28 06:12:59;;;;;;;1.58;1.45;;;19.90;47.40;;;;;;4955494;27;90357;-60
2024/01/28 06:15:25;;;;;;;2.13;1.55;;;19.90;47.30;;;;;;4955067;28;90506;-60
2024/01/28 06:17:50;;;;;;;2.53;1.70;;;19.90;47.60;;;;;;4960866;27;87579;-60
2024/01/28 06:20:17;;;;;;;1.50;1.20;;;19.90;47.40;;;;;;4958414;28;88650;-60
2024/01/28 06:22:43;;;;;;;3.42;1.50;;;19.90;47.50;;;;;;4956023;28;87817;-60
2024/01/28 06:25:09;;;;;;;2.50;1.30;;;19.90;47.60;;;;;;4957379;27;87911;-60
2024/01/28 06:27:36;;;;;;;2.05;1.30;;;19.90;47.40;;;;;;4954548;28;88895;-60
2024/01/28 06:30:01;;;;;;;2.00;1.45;;;19.90;47.40;;;;;;4953890;28;87909;-60
2024/01/28 06:32:27;;;;;;;2.13;1.45;;;19.80;47.40;;;;;;4956482;28;87743;-60
2024/01/28 06:34:53;;;;;;;2.28;1.30;;;19.90;47.40;;;;;;4957885;28;87732;-60
2024/01/28 06:37:19;;;;;;;1.75;1.38;;;19.90;47.40;;;;;;4949057;28;89006;-60
2024/01/28 06:39:50;;;;;;;2.08;1.55;;;19.90;47.60;;;;;;4955658;28;87996;-60
2024/01/28 06:42:18;;;;;;;1.90;1.38;;;19.80;47.50;;;;;;4954842;27;87517;-60
2024/01/28 06:44:44;;;;;;;1.73;1.42;;;19.80;47.60;;;;;;4955108;28;89683;-60
2024/01/28 06:47:10;;;;;;;1.88;1.38;;;19.80;47.30;;;;;;4960037;28;88304;-60
2024/01/28 06:49:35;;;;;;;2.67;1.63;;;19.80;47.70;;;;;;4958007;28;87248;-60
2024/01/28 06:52:01;;;;;;;1.60;1.38;;;19.80;47.70;;;;;;4953390;28;87617;-59
2024/01/28 06:54:27;;;;;;;2.00;1.38;;;19.80;47.60;;;;;;4957357;28;88636;-60
2024/01/28 06:56:53;;;;;;;3.47;1.58;;;19.80;47.70;;;;;;4953779;28;88694;-60
2024/01/28 06:59:19;;;;;;;4.03;1.85;;;19.80;47.40;;;;;;4955707;28;87756;-58
2024/01/28 07:01:45;;;;;;;2.88;1.42;;;19.80;47.50;;;;;;4990424;28;87537;-59
2024/01/28 07:04:12;;;;;;;2.03;1.70;;;19.80;47.60;;;;;;4939095;28;89680;-60
2024/01/28 07:06:38;;;;;;;2.83;1.70;;;19.80;47.80;;;;;;4959516;27;88735;-60
2024/01/28 07:09:05;;;;;;;1.25;1.15;;;19.80;48.00;;;;;;4954199;27;88465;-60
2024/01/28 07:11:31;;;;;;;22.35;4.90;;;19.80;48.10;;;;;;4958247;28;87671;-60
2024/01/28 07:13:58;;;;;;;13.65;3.80;;;19.90;48.10;;;;;;4959856;28;88402;-60
2024/01/28 07:16:24;;;;;;;8.35;2.97;;;19.90;47.90;;;;;;4952651;28;90973;-59
2024/01/28 07:18:49;;;;;;;14.30;3.63;;;19.90;48.00;;;;;;4954334;28;87768;-58
2024/01/28 07:21:15;;;;;;;9.95;3.47;;;19.90;47.90;;;;;;4956647;28;87800;-61
2024/01/28 07:23:41;;;;;;;7.28;2.20;;;19.90;47.90;;;;;;4956380;28;87470;-61
2024/01/28 07:26:09;;;;;;;6.75;2.47;;;20.00;48.60;;;;;;4937745;28;89234;-60
2024/01/28 07:28:35;;;;;;;5.00;1.95;;;20.10;48.40;;;;;;4970942;28;86924;-60
2024/01/28 07:31:01;;;;;;;3.72;1.95;;;20.10;48.60;;;;;;4955757;28;87943;-60
2024/01/28 07:33:27;;;;;;;6.72;2.75;;;20.20;48.40;;;;;;4953789;28;89765;-61
2024/01/28 07:35:53;;;;;;;17.35;2.35;;;20.30;48.40;;;;;;4956303;28;89671;-58
2024/01/28 07:38:19;;;;;;;7.65;2.00;;;20.40;48.30;;;;;;4955544;27;87738;-57
2024/01/28 07:40:45;;;;;;;9.65;1.63;;;20.50;48.30;;;;;;4954562;28;87399;-60
2024/01/28 07:43:10;;;;;;;4.32;1.70;;;20.60;48.10;;;;;;4957447;28;88183;-59
2024/01/28 07:45:37;;;;;;;3.83;1.52;;;20.70;48.00;;;;;;4955721;28;88030;-61
2024/01/28 07:48:03;;;;;;;4.68;2.03;;;20.70;47.90;;;;;;4954700;28;87674;-60
2024/01/28 07:50:29;;;;;;;4.38;1.70;;;20.90;47.90;;;;;;4955933;28;87542;-59
2024/01/28 07:52:57;;;;;;;4.55;1.42;;;20.90;47.80;;;;;;4952595;28;88490;-59
2024/01/28 07:55:22;;;;;;;3.63;1.45;;;20.90;47.50;;;;;;4952392;28;87958;-60
2024/01/28 07:57:49;;;;;;;4.47;1.67;;;21.00;47.40;;;;;;4988357;27;88509;-60
2024/01/28 08:00:15;;;;;;;2.28;1.67;;;21.10;47.20;;;;;;4950910;28;87265;-60
2024/01/28 08:02:40;;;;;;;3.15;1.42;;;21.10;47.20;;;;;;4954622;28;87943;-60
2024/01/28 08:05:07;;;;;;;6.32;1.90;;;21.20;47.20;;;;;;4950067;28;88515;-60
2024/01/28 08:07:33;;;;;;;2.63;1.42;;;21.20;47.80;;;;;;4957342;28;87931;-60
2024/01/28 08:09:58;;;;;;;1.73;1.27;;;21.30;47.00;;;;;;4957082;28;87601;-60
2024/01/28 08:12:24;;;;;;;4.10;1.88;;;21.30;47.00;;;;;;4955925;28;88620;-60
2024/01/28 08:14:50;;;;;;;3.17;1.63;;;21.30;46.90;;;;;;4956436;28;90581;-60
2024/01/28 08:17:17;;;;;;;5.60;1.50;;;21.40;47.00;;;;;;4952940;28;87614;-60
2024/01/28 08:19:43;;;;;;;7.40;2.28;;;21.40;46.70;;;;;;4955384;28;87616;-60
2024/01/28 08:22:09;;;;;;;10.00;2.78;;;21.40;46.30;;;;;;4952412;28;89362;-59
2024/01/28 08:24:35;;;;;;;6.32;2.50;;;21.30;46.10;;;;;;4951539;28;89436;-59
2024/01/28 08:27:00;;;;;;;7.28;1.98;;;21.30;46.50;;;;;;4955513;28;87897;-59
2024/01/28 08:29:27;;;;;;;7.68;2.47;;;21.40;46.70;;;;;;4954049;28;89851;-58
2024/01/28 08:31:54;;;;;;;10.35;2.65;;;21.40;46.80;;;;;;4951418;28;91247;-59
2024/01/28 08:34:20;;;;;;;9.55;2.67;;;21.40;46.60;;;;;;4956179;28;88430;-59
2024/01/28 08:36:46;;;;;;;6.57;2.83;;;21.40;46.70;;;;;;4951707;28;87455;-59
2024/01/28 08:39:14;;;;;;;10.40;3.15;;;21.50;46.70;;;;;;4952487;28;86886;-60
2024/01/28 08:41:40;;;;;;;14.05;3.20;;;21.50;46.50;;;;;;4958436;28;90146;-61
2024/01/28 08:44:09;;;;;;;11.48;3.75;;;21.50;46.10;;;;;;4954015;28;87693;-59
2024/01/28 08:46:39;;;;;;;8.80;2.97;;;21.50;46.20;;;;;;4954232;28;87889;-59
2024/01/28 08:49:05;;;;;;;11.45;3.33;;;21.60;45.80;;;;;;4954492;28;87554;-57
2024/01/28 08:51:30;;;;;;;13.48;3.28;;;21.60;45.40;;;;;;4953580;28;88222;-59
2024/01/28 08:53:56;;;;;;;14.00;3.83;;;21.70;45.20;;;;;;4955025;28;87839;-59
2024/01/28 08:56:21;;;;;;;12.20;3.20;;;21.70;44.60;;;;;;4951095;28;87293;-59
2024/01/28 08:58:47;;;;;;;11.77;3.60;;;21.70;44.30;;;;;;4952323;28;89173;-59
2024/01/28 09:01:21;;;;;;;9.60;3.83;;;21.70;44.20;;;;;;4948259;28;90711;-59
2024/01/28 09:03:47;;;;;;;12.43;4.68;;;21.80;43.80;;;;;;4969537;28;89513;-59
2024/01/28 09:06:13;;;;;;;13.43;4.35;;;21.80;44.20;;;;;;4951451;28;87181;-60
2024/01/28 09:08:38;;;;;;;12.85;4.32;;;21.90;43.40;;;;;;4954742;28;87741;-59
2024/01/28 09:11:04;;;;;;;14.50;3.95;;;21.90;43.40;;;;;;4954239;27;89835;-60
2024/01/28 09:13:30;;;;;;;12.68;3.78;;;21.90;43.20;;;;;;4955245;28;88858;-60
2024/01/28 09:15:55;;;;;;;13.48;4.80;;;21.90;43.30;;;;;;4958781;28;87861;-59
2024/01/28 09:18:21;;;;;;;16.42;4.55;;;21.90;42.90;;;;;;4958573;27;87106;-59
2024/01/28 09:20:47;;;;;;;12.27;3.40;;;22.00;43.30;;;;;;4952212;28;87954;-59
2024/01/28 09:23:13;;;;;;;8.15;3.42;;;22.00;42.60;;;;;;4938284;27;90942;-59
2024/01/28 09:25:39;;;;;;;10.57;3.75;;;22.00;42.40;;;;;;4957569;28;88739;-59
2024/01/28 09:28:07;;;;;;;9.70;3.88;;;22.00;42.40;;;;;;4955549;27;87565;-59
2024/01/28 09:30:33;;;;;;;12.93;3.50;;;22.00;42.70;;;;;;4949824;28;90339;-59
2024/01/28 09:32:58;;;;;;;10.10;3.58;;;22.00;41.90;;;;;;4949351;28;87981;-59
2024/01/28 09:35:25;;;;;;;10.27;3.75;;;22.00;41.80;;;;;;4950442;28;88160;-59
2024/01/28 09:37:54;;;;;;;9.50;3.55;;;22.00;41.90;;;;;;4954227;28;87301;-59
2024/01/28 09:40:21;;;;;;;12.32;3.80;;;22.10;41.90;;;;;;4949802;27;88016;-59
2024/01/28 09:43:04;;;;;;;7.30;3.40;;;22.10;41.70;;;;;;4935938;28;87450;-59
2024/01/28 09:45:30;;;;;;;7.65;3.55;;;22.10;41.60;;;;;;4955366;28;87388;-59
2024/01/28 09:47:56;;;;;;;8.02;3.67;;;22.10;41.80;;;;;;4954364;28;87712;-59
2024/01/28 09:50:22;;;;;;;6.07;3.20;;;22.00;42.10;;;;;;4958791;28;88318;-58
2024/01/28 09:52:47;;;;;;;9.55;3.53;;;22.00;43.20;;;;;;4955551;28;87670;-59
2024/01/28 09:55:13;;;;;;;14.18;4.00;;;22.00;43.30;;;;;;4953036;28;87312;-59
2024/01/28 09:57:39;;;;;;;10.90;3.45;;;22.10;43.90;;;;;;4956046;27;87429;-59
2024/01/28 10:00:09;;;;;;;9.10;4.18;;;22.10;44.10;;;;;;4953000;28;89141;-59
2024/01/28 10:02:35;;;;;;;6.95;3.55;;;22.10;44.30;;;;;;4951687;28;91522;-59
2024/01/28 10:05:02;;;;;;;11.20;3.38;;;22.10;44.40;;;;;;4953193;27;88038;-59
2024/01/28 10:07:27;;;;;;;10.88;3.55;;;22.10;44.40;;;;;;4954188;28;87750;-59
2024/01/28 10:09:53;;;;;;;6.25;3.55;;;22.20;44.30;;;;;;4956780;28;87604;-59
2024/01/28 10:12:19;;;;;;;8.18;3.70;;;22.20;44.00;;;;;;4961315;28;87801;-58
2024/01/28 10:14:51;;;;;;;7.03;3.63;;;22.20;43.90;;;;;;4955692;28;86962;-59
2024/01/28 10:17:21;;;;;;;8.23;3.25;;;22.20;43.70;;;;;;4949977;28;87783;-59
2024/01/28 10:19:46;;;;;;;10.20;3.90;;;22.20;43.40;;;;;;4959107;28;88345;-59
2024/01/28 10:22:12;;;;;;;6.13;2.70;;;22.20;43.10;;;;;;4955596;28;89266;-59
2024/01/28 10:24:41;;;;;;;7.10;3.25;;;22.20;42.80;;;;;;4957208;27;88677;-59
2024/01/28 10:27:07;;;;;;;8.73;4.23;;;22.20;42.70;;;;;;4958163;28;89038;-60
2024/01/28 10:29:33;;;;;;;8.95;3.83;;;22.20;41.90;;;;;;4983562;28;88161;-60
2024/01/28 10:32:02;;;;;;;5.72;2.83;;;22.20;41.60;;;;;;4955314;28;87798;-59
2024/01/28 10:34:28;;;;;;;7.90;3.28;;;22.30;42.30;;;;;;4955622;28;87450;-60
2024/01/28 10:36:56;;;;;;;9.25;3.78;;;22.30;41.70;;;;;;4954144;28;87476;-58
2024/01/28 10:39:22;;;;;;;10.75;4.80;;;22.30;41.60;;;;;;4961732;27;88088;-59
2024/01/28 10:41:55;;;;;;;13.95;5.45;;;22.30;40.90;;;;;;4955551;28;87870;-58
2024/01/28 10:44:22;;;;;;;28.83;10.57;;;22.30;40.90;;;;;;4955798;28;87352;-58
2024/01/28 10:46:53;;;;;;;37.55;11.02;;;22.30;40.80;;;;;;4954761;28;87649;-59
2024/01/28 10:49:25;;;;;;;27.30;10.00;;;22.40;40.60;;;;;;4956635;27;89821;-59
2024/01/28 10:51:52;;;;;;;22.67;8.40;;;22.30;40.60;;;;;;4955736;28;87474;-59
2024/01/28 10:54:19;;;;;;;25.70;8.25;;;22.40;41.20;;;;;;4953086;28;87274;-58
2024/01/28 10:56:46;;;;;;;21.25;7.60;;;22.40;40.60;;;;;;4952612;27;87999;-59
2024/01/28 10:59:12;;;;;;;21.63;7.82;;;22.40;40.60;;;;;;4952832;28;89001;-59
2024/01/28 11:01:38;;;;;;;18.75;6.65;;;22.30;40.70;;;;;;4956914;28;87801;-59
2024/01/28 11:04:05;;;;;;;22.52;6.80;;;22.30;40.60;;;;;;4953357;28;87783;-59
2024/01/28 11:06:31;;;;;;;22.15;7.53;;;22.30;40.90;;;;;;4956421;27;87248;-59
2024/01/28 11:08:58;;;;;;;21.17;6.43;;;22.30;40.70;;;;;;4956180;28;88645;-59
2024/01/28 11:11:24;;;;;;;17.15;6.25;;;22.30;41.00;;;;;;4945605;28;89007;-59
2024/01/28 11:13:51;;;;;;;18.70;7.55;;;22.30;40.90;;;;;;4956461;28;88190;-59
2024/01/28 11:16:19;;;;;;;14.27;6.18;;;22.30;40.80;;;;;;4952521;28;87720;-59
2024/01/28 11:18:58;;;;;;;13.52;6.10;;;22.30;40.80;;;;;;4958410;28;89345;-59
2024/01/28 11:21:28;;;;;;;13.82;6.40;;;22.30;40.80;;;;;;4953408;28;88926;-59
2024/01/28 11:23:55;;;;;;;12.38;5.60;;;22.30;40.90;;;;;;4959027;27;87979;-59
2024/01/28 11:26:23;;;;;;;20.05;6.25;;;22.30;41.00;;;;;;4957703;28;87434;-59
2024/01/28 11:28:51;;;;;;;13.90;4.60;;;22.40;41.30;;;;;;4958049;28;87525;-59
2024/01/28 11:31:22;;;;;;;15.07;6.07;;;22.40;41.50;;;;;;4973862;28;88229;-59
2024/01/28 11:33:48;;;;;;;12.07;4.88;;;22.40;42.00;;;;;;4954797;28;87091;-59
2024/01/28 11:36:24;;;;;;;15.05;5.60;;;22.40;42.30;;;;;;4951875;28;87653;-61
2024/01/28 11:38:59;;;;;;;13.80;5.32;;;22.30;42.70;;;;;;4956165;27;88552;-59
2024/01/28 11:41:26;;;;;;;13.25;4.65;;;22.40;42.80;;;;;;4953832;28;88840;-59
2024/01/28 11:43:52;;;;;;;11.70;4.90;;;22.40;42.90;;;;;;4958083;28;87416;-59
2024/01/28 11:46:19;;;;;;;13.93;5.82;;;22.40;42.80;;;;;;4957345;28;87222;-59
2024/01/28 11:48:45;;;;;;;15.40;5.38;;;22.40;42.80;;;;;;4956642;28;88165;-59
2024/01/28 11:51:12;;;;;;;9.52;4.35;;;22.30;42.80;;;;;;4955030;28;87821;-59
2024/01/28 11:53:42;;;;;;;13.15;4.50;;;22.40;42.60;;;;;;4988719;27;87667;-59
2024/01/28 11:56:08;;;;;;;8.88;4.35;;;22.40;42.70;;;;;;4956826;28;87466;-59
2024/01/28 11:58:34;;;;;;;10.20;4.07;;;22.30;42.60;;;;;;4959033;28;88415;-59
2024/01/28 12:00:59;;;;;;;11.45;4.57;;;22.40;42.80;;;;;;4979961;27;88517;-59
2024/01/28 12:03:26;;;;;;;9.35;4.22;;;22.40;42.90;;;;;;4957236;27;88898;-58
2024/01/28 12:05:51;;;;;;;12.52;4.40;;;22.40;43.00;;;;;;4952857;28;87842;-58
2024/01/28 12:08:27;;;;;;;10.88;4.40;;;22.40;43.40;;;;;;4954956;27;88055;-59
2024/01/28 12:11:03;;;;;;;11.20;4.70;;;22.40;43.40;;;;;;4952032;28;87492;-58
2024/01/28 12:13:29;;;;;;;11.45;5.03;;;22.40;43.40;;;;;;4949815;28;87495;-59
2024/01/28 12:15:58;;;;;;;12.57;4.22;;;22.30;43.30;;;;;;4954777;27;87621;-57
2024/01/28 12:18:39;;;;;;;12.55;4.35;;;22.30;43.50;;;;;;4960350;28;87897;-59
2024/01/28 12:21:14;;;;;;;8.43;4.00;;;22.20;43.50;;;;;;4952667;28;89186;-59
2024/01/28 12:23:40;;;;;;;12.10;4.45;;;22.20;43.90;;;;;;4954044;28;87294;-59
2024/01/28 12:26:06;;;;;;;8.43;4.28;;;22.20;43.80;;;;;;4956740;28;87372;-59
2024/01/28 12:28:32;;;;;;;12.07;4.30;;;22.20;43.90;;;;;;4957256;28;92472;-59
2024/01/28 12:30:59;;;;;;;9.77;3.53;;;22.10;44.00;;;;;;4956613;28;88622;-59
2024/01/28 12:33:26;;;;;;;9.70;4.43;;;22.10;44.10;;;;;;4956242;28;88124;-59
2024/01/28 12:35:51;;;;;;;11.55;3.90;;;22.10;44.10;;;;;;4954251;28;87494;-55
2024/01/28 12:38:18;;;;;;;9.27;3.95;;;22.00;44.10;;;;;;4951229;27;87784;-59
2024/01/28 12:40:43;;;;;;;8.93;4.05;;;22.00;44.20;;;;;;4952465;28;88125;-59
2024/01/28 12:43:09;;;;;;;10.77;3.92;;;22.00;44.30;;;;;;4956962;28;87357;-59